createdAt,value
2022-08-03T00:04:47.293Z,77.80
2022-08-03T00:14:52.493Z,79.50
2022-08-03T00:24:57.996Z,80.60
2022-08-03T00:35:08.114Z,81.30
2022-08-03T00:45:13.639Z,83.50
2022-08-03T00:55:18.895Z,84.60
2022-08-03T01:05:23.694Z,87.40
2022-08-03T01:15:36.303Z,89.60
2022-08-03T01:26:02.013Z,90.10
2022-08-03T01:36:14.988Z,90.40
2022-08-03T01:46:20.567Z,90.20
2022-08-03T01:56:28.304Z,90.90
2022-08-03T02:07:01.318Z,91.20
2022-08-03T02:17:01.804Z,91.00
2022-08-03T02:27:11.241Z,91.30
2022-08-03T02:37:19.594Z,91.70
2022-08-03T02:47:24.143Z,91.70
2022-08-03T02:57:31.909Z,92.00
2022-08-03T03:07:51.328Z,92.60
2022-08-03T03:17:58.333Z,93.30
2022-08-03T03:28:02.923Z,92.90
2022-08-03T03:38:08.207Z,92.80
2022-08-03T03:48:12.466Z,92.90
2022-08-03T03:58:17.519Z,93.10
2022-08-03T04:08:52.375Z,93.00
2022-08-03T04:19:09.666Z,93.50
2022-08-03T04:29:14.817Z,93.80
2022-08-03T04:39:26.542Z,94.00
2022-08-03T04:49:31.216Z,94.20
2022-08-03T04:59:36.355Z,94.30
2022-08-03T05:09:52.472Z,94.10
2022-08-03T05:19:58.411Z,94.10
2022-08-03T05:30:30.753Z,92.50
2022-08-03T05:40:27.435Z,91.60
2022-08-03T05:50:31.218Z,91.40
2022-08-03T06:00:36.336Z,90.90
2022-08-03T06:10:40.072Z,90.40
2022-08-03T06:20:45.443Z,89.70
2022-08-03T06:30:53.352Z,87.00
2022-08-03T06:40:58.760Z,84.50
2022-08-03T06:51:02.464Z,81.80
2022-08-03T07:01:11.983Z,80.20
2022-08-03T07:11:15.730Z,79.50
2022-08-03T07:21:21.169Z,78.00
2022-08-03T07:31:24.980Z,77.10
2022-08-03T07:41:30.171Z,75.40
2022-08-03T07:51:33.943Z,75.00
2022-08-03T08:01:39.118Z,74.00
2022-08-03T08:11:43.194Z,72.00
2022-08-03T08:21:53.783Z,68.10
2022-08-03T08:32:07.410Z,67.60
2022-08-03T08:42:13.009Z,65.60
2022-08-03T08:52:24.950Z,63.90
2022-08-03T09:02:32.380Z,63.20
2022-08-03T09:12:42.604Z,60.30
2022-08-03T09:23:19.097Z,57.70
2022-08-03T09:33:36.248Z,57.50
2022-08-03T09:43:48.667Z,56.90
2022-08-03T09:53:59.034Z,55.20
2022-08-03T10:04:05.650Z,53.50
2022-08-03T10:14:11.204Z,52.20
2022-08-03T10:24:25.576Z,53.20
2022-08-03T10:34:37.111Z,50.30
2022-08-03T10:44:44.485Z,49.70
2022-08-03T10:55:07.561Z,48.90
2022-08-03T11:05:33.306Z,48.20
2022-08-03T11:15:38.726Z,47.00
2022-08-03T11:26:18.650Z,48.20
2022-08-03T11:36:32.216Z,45.80
2022-08-03T11:46:39.577Z,45.30
2022-08-03T11:56:49.467Z,44.30
2022-08-03T12:07:03.700Z,43.60
2022-08-03T12:17:07.611Z,43.40
2022-08-03T12:27:13.401Z,42.80
2022-08-03T12:37:22.440Z,42.20
2022-08-03T12:47:28.296Z,42.50
2022-08-03T12:57:42.848Z,41.20
2022-08-03T13:07:48.383Z,41.00
2022-08-03T13:17:52.234Z,40.90
2022-08-03T13:28:04.517Z,40.20
2022-08-03T13:38:09.820Z,39.20
2022-08-03T13:48:15.096Z,39.80
2022-08-03T13:58:38.875Z,39.60
2022-08-03T14:08:45.099Z,38.50
2022-08-03T14:18:48.933Z,38.50
2022-08-03T14:28:56.265Z,38.30
2022-08-03T14:39:01.467Z,38.50
2022-08-03T14:50:36.289Z,37.90
2022-08-03T14:59:55.601Z,37.70
2022-08-03T15:09:55.863Z,36.40
2022-08-03T15:20:17.090Z,36.80
2022-08-03T15:30:23.345Z,36.30
2022-08-03T15:40:27.044Z,36.70
2022-08-03T15:50:32.193Z,35.90
2022-08-03T16:00:36.171Z,35.00
2022-08-03T16:10:41.485Z,34.20
2022-08-03T16:20:45.836Z,34.60
2022-08-03T16:30:50.998Z,34.10
2022-08-03T16:40:54.801Z,34.00
2022-08-03T16:51:00.250Z,33.10
2022-08-03T17:01:20.819Z,32.90
2022-08-03T17:11:27.881Z,31.30
2022-08-03T17:21:37.682Z,29.30
2022-08-03T17:31:48.764Z,28.90
2022-08-03T17:41:53.406Z,26.60
2022-08-03T17:52:04.875Z,25.20
2022-08-03T18:02:47.748Z,25.90
2022-08-03T18:13:15.774Z,26.50
2022-08-03T18:23:36.360Z,27.60
2022-08-03T18:34:17.564Z,30.10
2022-08-03T18:44:37.585Z,33.10
2022-08-03T18:55:02.891Z,38.20
2022-08-03T19:05:12.197Z,41.40
2022-08-03T19:15:17.497Z,43.50
2022-08-03T19:25:40.622Z,43.90
2022-08-03T19:35:55.604Z,44.50
2022-08-03T19:46:14.326Z,46.70
2022-08-03T19:56:25.156Z,50.20
2022-08-03T20:06:29.253Z,51.90
2022-08-03T20:16:34.478Z,53.10
2022-08-03T20:26:38.858Z,54.80
2022-08-03T20:36:48.813Z,54.50
2022-08-03T20:47:00.290Z,56.70
2022-08-03T20:57:09.599Z,59.60
2022-08-03T21:07:22.930Z,60.50
2022-08-03T21:17:40.535Z,59.20
2022-08-03T21:27:47.077Z,59.00
2022-08-03T21:38:12.729Z,60.00
2022-08-03T21:48:17.852Z,63.70
2022-08-03T21:58:29.568Z,65.40
2022-08-03T22:08:35.847Z,64.60
2022-08-03T22:18:44.252Z,64.90
2022-08-03T22:28:48.555Z,65.40
2022-08-03T22:38:54.311Z,67.00
2022-08-03T22:48:58.844Z,68.70
2022-08-03T22:59:40.807Z,69.10
2022-08-03T23:09:31.900Z,70.20
2022-08-03T23:19:44.562Z,73.90
2022-08-03T23:29:49.151Z,76.80
2022-08-03T23:39:55.956Z,77.60
2022-08-03T23:49:59.789Z,78.20
